sensor_id;sensor_type;location;lat;lon;timestamp;P1;durP1;ratioP1;P2;durP2;ratioP2
26484;SDS011;18083;50.560;7.262;2023-03-26T00:02:22;15.53;;;3.60;;
26484;SDS011;18083;50.560;7.262;2023-03-26T00:04:50;16.57;;;3.20;;
26484;SDS011;18083;50.560;7.262;2023-03-26T00:07:18;10.63;;;2.53;;
26484;SDS011;18083;50.560;7.262;2023-03-26T00:09:45;9.87;;;3.10;;
26484;SDS011;18083;50.560;7.262;2023-03-26T00:12:13;10.47;;;3.43;;
26484;SDS011;18083;50.560;7.262;2023-03-26T00:14:41;9.03;;;3.20;;
26484;SDS011;18083;50.560;7.262;2023-03-26T00:17:08;11.00;;;3.73;;
26484;SDS011;18083;50.560;7.262;2023-03-26T00:19:36;7.83;;;2.60;;
26484;SDS011;18083;50.560;7.262;2023-03-26T00:22:04;14.87;;;4.13;;
26484;SDS011;18083;50.560;7.262;2023-03-26T00:24:31;12.03;;;3.20;;
26484;SDS011;18083;50.560;7.262;2023-03-26T00:26:58;17.13;;;3.03;;
26484;SDS011;18083;50.560;7.262;2023-03-26T00:29:26;15.33;;;3.03;;
26484;SDS011;18083;50.560;7.262;2023-03-26T00:31:53;13.63;;;4.57;;
26484;SDS011;18083;50.560;7.262;2023-03-26T00:34:20;10.73;;;2.93;;
26484;SDS011;18083;50.560;7.262;2023-03-26T00:36:48;12.63;;;3.27;;
26484;SDS011;18083;50.560;7.262;2023-03-26T00:39:17;13.63;;;2.87;;
26484;SDS011;18083;50.560;7.262;2023-03-26T00:41:45;13.40;;;4.00;;
26484;SDS011;18083;50.560;7.262;2023-03-26T00:44:12;11.70;;;3.70;;
26484;SDS011;18083;50.560;7.262;2023-03-26T00:46:39;16.33;;;6.40;;
26484;SDS011;18083;50.560;7.262;2023-03-26T00:49:07;9.85;;;2.70;;
26484;SDS011;18083;50.560;7.262;2023-03-26T00:51:36;17.90;;;3.20;;
26484;SDS011;18083;50.560;7.262;2023-03-26T00:54:04;12.33;;;3.20;;
26484;SDS011;18083;50.560;7.262;2023-03-26T00:56:33;13.63;;;3.37;;
26484;SDS011;18083;50.560;7.262;2023-03-26T00:59:00;10.03;;;3.77;;
26484;SDS011;18083;50.560;7.262;2023-03-26T01:01:27;19.40;;;4.97;;
26484;SDS011;18083;50.560;7.262;2023-03-26T01:03:56;9.10;;;3.15;;
26484;SDS011;18083;50.560;7.262;2023-03-26T01:06:30;10.60;;;2.10;;
26484;SDS011;18083;50.560;7.262;2023-03-26T01:09:11;11.23;;;3.20;;
26484;SDS011;18083;50.560;7.262;2023-03-26T01:11:35;10.43;;;4.27;;
26484;SDS011;18083;50.560;7.262;2023-03-26T01:14:07;14.73;;;3.77;;
26484;SDS011;18083;50.560;7.262;2023-03-26T01:19:05;8.27;;;2.97;;
26484;SDS011;18083;50.560;7.262;2023-03-26T01:21:35;10.63;;;3.20;;
26484;SDS011;18083;50.560;7.262;2023-03-26T01:24:07;10.63;;;2.60;;
26484;SDS011;18083;50.560;7.262;2023-03-26T01:26:39;13.87;;;3.30;;
26484;SDS011;18083;50.560;7.262;2023-03-26T01:29:04;18.03;;;3.63;;
26484;SDS011;18083;50.560;7.262;2023-03-26T01:31:38;12.37;;;2.63;;
26484;SDS011;18083;50.560;7.262;2023-03-26T01:36:52;13.73;;;4.27;;
26484;SDS011;18083;50.560;7.262;2023-03-26T01:39:45;18.23;;;4.10;;
26484;SDS011;18083;50.560;7.262;2023-03-26T01:42:13;13.30;;;3.17;;
26484;SDS011;18083;50.560;7.262;2023-03-26T01:47:05;19.83;;;6.23;;
26484;SDS011;18083;50.560;7.262;2023-03-26T01:49:33;11.67;;;3.13;;
26484;SDS011;18083;50.560;7.262;2023-03-26T01:52:01;11.43;;;3.83;;
26484;SDS011;18083;50.560;7.262;2023-03-26T01:54:29;16.97;;;3.17;;
26484;SDS011;18083;50.560;7.262;2023-03-26T02:02:07;13.33;;;4.00;;
26484;SDS011;18083;50.560;7.262;2023-03-26T02:09:55;10.47;;;3.47;;
26484;SDS011;18083;50.560;7.262;2023-03-26T02:12:23;13.27;;;3.20;;
26484;SDS011;18083;50.560;7.262;2023-03-26T02:14:51;11.97;;;3.60;;
26484;SDS011;18083;50.560;7.262;2023-03-26T02:17:19;8.17;;;3.10;;
26484;SDS011;18083;50.560;7.262;2023-03-26T02:19:48;15.27;;;4.03;;
26484;SDS011;18083;50.560;7.262;2023-03-26T02:22:15;12.80;;;3.20;;
26484;SDS011;18083;50.560;7.262;2023-03-26T02:24:43;13.93;;;3.27;;
26484;SDS011;18083;50.560;7.262;2023-03-26T02:27:11;14.43;;;3.97;;
26484;SDS011;18083;50.560;7.262;2023-03-26T02:29:38;9.17;;;3.03;;
26484;SDS011;18083;50.560;7.262;2023-03-26T02:32:06;6.70;;;3.27;;
26484;SDS011;18083;50.560;7.262;2023-03-26T02:34:34;9.57;;;2.70;;
26484;SDS011;18083;50.560;7.262;2023-03-26T02:37:02;9.93;;;4.67;;
26484;SDS011;18083;50.560;7.262;2023-03-26T02:39:29;17.80;;;3.27;;
26484;SDS011;18083;50.560;7.262;2023-03-26T02:41:56;10.97;;;3.10;;
26484;SDS011;18083;50.560;7.262;2023-03-26T02:44:24;14.10;;;3.60;;
26484;SDS011;18083;50.560;7.262;2023-03-26T02:46:52;15.23;;;3.07;;
26484;SDS011;18083;50.560;7.262;2023-03-26T02:49:19;6.90;;;2.67;;
26484;SDS011;18083;50.560;7.262;2023-03-26T02:51:47;11.70;;;3.90;;
26484;SDS011;18083;50.560;7.262;2023-03-26T02:54:14;10.80;;;3.43;;
26484;SDS011;18083;50.560;7.262;2023-03-26T02:56:42;7.50;;;3.03;;
26484;SDS011;18083;50.560;7.262;2023-03-26T02:59:09;12.17;;;2.97;;
26484;SDS011;18083;50.560;7.262;2023-03-26T03:01:36;13.73;;;3.53;;
26484;SDS011;18083;50.560;7.262;2023-03-26T03:04:05;16.00;;;4.07;;
26484;SDS011;18083;50.560;7.262;2023-03-26T03:06:33;7.97;;;3.53;;
26484;SDS011;18083;50.560;7.262;2023-03-26T03:09:00;10.93;;;3.23;;
26484;SDS011;18083;50.560;7.262;2023-03-26T03:11:28;13.07;;;3.10;;
26484;SDS011;18083;50.560;7.262;2023-03-26T03:13:56;14.87;;;3.30;;
26484;SDS011;18083;50.560;7.262;2023-03-26T03:16:23;10.13;;;3.33;;
26484;SDS011;18083;50.560;7.262;2023-03-26T03:18:51;9.13;;;2.87;;
26484;SDS011;18083;50.560;7.262;2023-03-26T03:21:27;12.93;;;4.17;;
26484;SDS011;18083;50.560;7.262;2023-03-26T03:23:55;10.80;;;4.00;;
26484;SDS011;18083;50.560;7.262;2023-03-26T03:26:23;18.90;;;3.30;;
26484;SDS011;18083;50.560;7.262;2023-03-26T03:28:55;16.63;;;4.13;;
26484;SDS011;18083;50.560;7.262;2023-03-26T03:31:23;13.37;;;3.40;;
26484;SDS011;18083;50.560;7.262;2023-03-26T03:33:51;10.43;;;3.27;;
26484;SDS011;18083;50.560;7.262;2023-03-26T03:36:19;7.13;;;3.20;;
26484;SDS011;18083;50.560;7.262;2023-03-26T03:38:51;10.13;;;3.43;;
26484;SDS011;18083;50.560;7.262;2023-03-26T03:41:19;7.93;;;3.07;;
26484;SDS011;18083;50.560;7.262;2023-03-26T03:43:46;10.43;;;2.53;;
26484;SDS011;18083;50.560;7.262;2023-03-26T03:46:14;8.23;;;2.70;;
26484;SDS011;18083;50.560;7.262;2023-03-26T03:48:41;12.53;;;3.10;;
26484;SDS011;18083;50.560;7.262;2023-03-26T03:51:10;12.70;;;3.33;;
26484;SDS011;18083;50.560;7.262;2023-03-26T03:53:37;20.47;;;4.67;;
26484;SDS011;18083;50.560;7.262;2023-03-26T03:56:05;6.07;;;2.97;;
26484;SDS011;18083;50.560;7.262;2023-03-26T03:58:35;9.67;;;3.10;;
26484;SDS011;18083;50.560;7.262;2023-03-26T04:01:02;9.27;;;3.27;;
26484;SDS011;18083;50.560;7.262;2023-03-26T04:03:30;13.77;;;4.07;;
26484;SDS011;18083;50.560;7.262;2023-03-26T04:05:59;8.97;;;2.97;;
26484;SDS011;18083;50.560;7.262;2023-03-26T04:08:26;15.70;;;3.90;;
26484;SDS011;18083;50.560;7.262;2023-03-26T04:10:53;9.80;;;3.00;;
26484;SDS011;18083;50.560;7.262;2023-03-26T04:13:21;13.10;;;3.47;;
26484;SDS011;18083;50.560;7.262;2023-03-26T04:15:48;6.83;;;3.33;;
26484;SDS011;18083;50.560;7.262;2023-03-26T04:18:15;11.87;;;3.37;;
26484;SDS011;18083;50.560;7.262;2023-03-26T04:20:43;7.93;;;3.00;;
26484;SDS011;18083;50.560;7.262;2023-03-26T04:23:16;12.33;;;3.20;;
26484;SDS011;18083;50.560;7.262;2023-03-26T04:25:44;8.37;;;4.37;;
26484;SDS011;18083;50.560;7.262;2023-03-26T04:28:26;14.00;;;3.23;;
26484;SDS011;18083;50.560;7.262;2023-03-26T04:30:55;10.53;;;3.00;;
26484;SDS011;18083;50.560;7.262;2023-03-26T04:33:31;6.13;;;2.93;;
26484;SDS011;18083;50.560;7.262;2023-03-26T04:35:54;10.40;;;3.73;;
26484;SDS011;18083;50.560;7.262;2023-03-26T04:38:33;7.23;;;2.70;;
26484;SDS011;18083;50.560;7.262;2023-03-26T04:40:57;17.80;;;3.10;;
26484;SDS011;18083;50.560;7.262;2023-03-26T04:43:25;12.33;;;3.40;;
26484;SDS011;18083;50.560;7.262;2023-03-26T04:45:53;9.17;;;3.97;;
26484;SDS011;18083;50.560;7.262;2023-03-26T04:48:20;8.70;;;3.77;;
26484;SDS011;18083;50.560;7.262;2023-03-26T04:50:48;7.43;;;2.53;;
26484;SDS011;18083;50.560;7.262;2023-03-26T04:53:16;8.73;;;2.50;;
26484;SDS011;18083;50.560;7.262;2023-03-26T04:55:46;8.10;;;2.53;;
26484;SDS011;18083;50.560;7.262;2023-03-26T04:58:14;9.43;;;2.60;;
26484;SDS011;18083;50.560;7.262;2023-03-26T05:00:41;9.43;;;3.13;;
26484;SDS011;18083;50.560;7.262;2023-03-26T05:03:09;3.70;;;2.27;;
26484;SDS011;18083;50.560;7.262;2023-03-26T05:05:37;11.80;;;3.37;;
26484;SDS011;18083;50.560;7.262;2023-03-26T05:08:05;5.60;;;2.83;;
26484;SDS011;18083;50.560;7.262;2023-03-26T05:10:32;8.13;;;2.67;;
26484;SDS011;18083;50.560;7.262;2023-03-26T05:13:00;11.87;;;3.47;;
26484;SDS011;18083;50.560;7.262;2023-03-26T05:15:27;11.63;;;3.03;;
26484;SDS011;18083;50.560;7.262;2023-03-26T05:17:54;9.77;;;3.77;;
26484;SDS011;18083;50.560;7.262;2023-03-26T05:20:28;8.97;;;3.53;;
26484;SDS011;18083;50.560;7.262;2023-03-26T05:22:51;6.00;;;2.67;;
26484;SDS011;18083;50.560;7.262;2023-03-26T05:25:19;6.93;;;2.80;;
26484;SDS011;18083;50.560;7.262;2023-03-26T05:27:47;7.07;;;3.27;;
26484;SDS011;18083;50.560;7.262;2023-03-26T05:30:16;10.93;;;3.07;;
26484;SDS011;18083;50.560;7.262;2023-03-26T05:32:44;11.40;;;3.70;;
26484;SDS011;18083;50.560;7.262;2023-03-26T05:35:14;8.37;;;2.40;;
26484;SDS011;18083;50.560;7.262;2023-03-26T05:37:45;9.13;;;3.13;;
26484;SDS011;18083;50.560;7.262;2023-03-26T05:40:13;11.70;;;3.10;;
26484;SDS011;18083;50.560;7.262;2023-03-26T05:42:42;19.50;;;7.33;;
26484;SDS011;18083;50.560;7.262;2023-03-26T05:45:10;11.37;;;2.67;;
26484;SDS011;18083;50.560;7.262;2023-03-26T05:47:37;15.80;;;2.93;;
26484;SDS011;18083;50.560;7.262;2023-03-26T05:50:05;9.93;;;3.73;;
26484;SDS011;18083;50.560;7.262;2023-03-26T05:52:33;5.83;;;2.63;;
26484;SDS011;18083;50.560;7.262;2023-03-26T05:55:00;8.30;;;2.87;;
26484;SDS011;18083;50.560;7.262;2023-03-26T05:57:29;16.50;;;3.37;;
26484;SDS011;18083;50.560;7.262;2023-03-26T05:59:56;10.40;;;3.00;;
26484;SDS011;18083;50.560;7.262;2023-03-26T06:02:23;13.90;;;3.17;;
26484;SDS011;18083;50.560;7.262;2023-03-26T06:04:51;10.10;;;3.87;;
26484;SDS011;18083;50.560;7.262;2023-03-26T06:07:18;10.53;;;3.27;;
26484;SDS011;18083;50.560;7.262;2023-03-26T06:09:46;7.13;;;3.13;;
26484;SDS011;18083;50.560;7.262;2023-03-26T06:12:13;6.17;;;3.23;;
26484;SDS011;18083;50.560;7.262;2023-03-26T06:14:41;4.53;;;3.23;;
26484;SDS011;18083;50.560;7.262;2023-03-26T06:17:08;5.07;;;2.93;;
26484;SDS011;18083;50.560;7.262;2023-03-26T06:19:36;7.37;;;3.00;;
26484;SDS011;18083;50.560;7.262;2023-03-26T06:22:03;6.53;;;2.57;;
26484;SDS011;18083;50.560;7.262;2023-03-26T06:24:31;7.70;;;2.77;;
26484;SDS011;18083;50.560;7.262;2023-03-26T06:26:59;11.97;;;4.57;;
26484;SDS011;18083;50.560;7.262;2023-03-26T06:29:27;8.67;;;3.03;;
26484;SDS011;18083;50.560;7.262;2023-03-26T06:31:54;13.43;;;3.30;;
26484;SDS011;18083;50.560;7.262;2023-03-26T06:34:21;10.67;;;2.77;;
26484;SDS011;18083;50.560;7.262;2023-03-26T06:36:48;14.70;;;3.40;;
26484;SDS011;18083;50.560;7.262;2023-03-26T06:39:18;8.33;;;4.27;;
26484;SDS011;18083;50.560;7.262;2023-03-26T06:41:45;10.10;;;3.77;;
26484;SDS011;18083;50.560;7.262;2023-03-26T06:44:13;9.10;;;3.20;;
26484;SDS011;18083;50.560;7.262;2023-03-26T06:46:40;14.27;;;3.47;;
26484;SDS011;18083;50.560;7.262;2023-03-26T06:49:07;12.40;;;3.47;;
26484;SDS011;18083;50.560;7.262;2023-03-26T06:51:35;14.17;;;3.40;;
26484;SDS011;18083;50.560;7.262;2023-03-26T06:54:04;9.67;;;3.33;;
26484;SDS011;18083;50.560;7.262;2023-03-26T06:56:31;5.83;;;2.47;;
26484;SDS011;18083;50.560;7.262;2023-03-26T06:58:58;9.47;;;3.23;;
26484;SDS011;18083;50.560;7.262;2023-03-26T07:01:26;7.80;;;3.20;;
26484;SDS011;18083;50.560;7.262;2023-03-26T07:03:53;19.60;;;5.07;;
26484;SDS011;18083;50.560;7.262;2023-03-26T07:06:20;10.17;;;3.53;;
26484;SDS011;18083;50.560;7.262;2023-03-26T07:08:48;10.80;;;3.20;;
26484;SDS011;18083;50.560;7.262;2023-03-26T07:11:15;12.93;;;3.40;;
26484;SDS011;18083;50.560;7.262;2023-03-26T07:13:44;6.50;;;2.90;;
26484;SDS011;18083;50.560;7.262;2023-03-26T07:16:12;9.23;;;3.37;;
26484;SDS011;18083;50.560;7.262;2023-03-26T07:18:40;9.13;;;3.43;;
26484;SDS011;18083;50.560;7.262;2023-03-26T07:21:08;8.33;;;3.13;;
26484;SDS011;18083;50.560;7.262;2023-03-26T07:23:35;8.23;;;3.40;;
26484;SDS011;18083;50.560;7.262;2023-03-26T07:28:54;12.07;;;4.07;;
26484;SDS011;18083;50.560;7.262;2023-03-26T07:33:57;8.40;;;3.67;;
26484;SDS011;18083;50.560;7.262;2023-03-26T07:36:25;15.27;;;4.47;;
26484;SDS011;18083;50.560;7.262;2023-03-26T07:39:00;13.07;;;4.50;;
26484;SDS011;18083;50.560;7.262;2023-03-26T07:46:45;13.57;;;4.10;;
26484;SDS011;18083;50.560;7.262;2023-03-26T07:49:13;9.97;;;4.00;;
26484;SDS011;18083;50.560;7.262;2023-03-26T07:51:42;15.20;;;4.33;;
26484;SDS011;18083;50.560;7.262;2023-03-26T07:54:09;10.50;;;4.73;;
26484;SDS011;18083;50.560;7.262;2023-03-26T07:59:19;13.63;;;4.70;;
26484;SDS011;18083;50.560;7.262;2023-03-26T08:07:02;7.63;;;3.53;;
26484;SDS011;18083;50.560;7.262;2023-03-26T08:09:34;17.20;;;4.03;;
26484;SDS011;18083;50.560;7.262;2023-03-26T08:12:23;12.57;;;4.00;;
26484;SDS011;18083;50.560;7.262;2023-03-26T08:14:51;8.93;;;4.07;;
26484;SDS011;18083;50.560;7.262;2023-03-26T08:17:37;14.17;;;4.50;;
26484;SDS011;18083;50.560;7.262;2023-03-26T08:22:56;9.80;;;2.60;;
26484;SDS011;18083;50.560;7.262;2023-03-26T08:28:02;12.27;;;2.63;;
26484;SDS011;18083;50.560;7.262;2023-03-26T08:30:27;7.60;;;2.43;;
26484;SDS011;18083;50.560;7.262;2023-03-26T08:32:55;6.53;;;1.97;;
26484;SDS011;18083;50.560;7.262;2023-03-26T08:35:24;8.30;;;2.00;;
26484;SDS011;18083;50.560;7.262;2023-03-26T08:37:51;3.83;;;2.40;;
26484;SDS011;18083;50.560;7.262;2023-03-26T08:55:39;5.27;;;2.23;;
26484;SDS011;18083;50.560;7.262;2023-03-26T09:08:51;5.20;;;2.10;;
26484;SDS011;18083;50.560;7.262;2023-03-26T09:14:09;3.43;;;2.47;;
26484;SDS011;18083;50.560;7.262;2023-03-26T09:42:43;4.57;;;1.60;;
26484;SDS011;18083;50.560;7.262;2023-03-26T09:50:33;3.63;;;2.27;;
26484;SDS011;18083;50.560;7.262;2023-03-26T09:58:21;2.93;;;1.27;;
26484;SDS011;18083;50.560;7.262;2023-03-26T10:03:24;5.13;;;1.73;;
26484;SDS011;18083;50.560;7.262;2023-03-26T10:10:56;7.03;;;1.70;;
26484;SDS011;18083;50.560;7.262;2023-03-26T10:29:29;3.67;;;1.57;;
26484;SDS011;18083;50.560;7.262;2023-03-26T10:34:28;2.83;;;1.40;;
26484;SDS011;18083;50.560;7.262;2023-03-26T10:44:52;5.70;;;1.60;;
26484;SDS011;18083;50.560;7.262;2023-03-26T10:52:20;3.13;;;1.40;;
26484;SDS011;18083;50.560;7.262;2023-03-26T10:54:57;5.17;;;1.70;;
26484;SDS011;18083;50.560;7.262;2023-03-26T10:57:44;2.13;;;1.20;;
26484;SDS011;18083;50.560;7.262;2023-03-26T11:00:12;1.63;;;1.20;;
26484;SDS011;18083;50.560;7.262;2023-03-26T11:02:53;6.40;;;1.50;;
26484;SDS011;18083;50.560;7.262;2023-03-26T11:08:09;3.80;;;1.93;;
26484;SDS011;18083;50.560;7.262;2023-03-26T11:10:46;8.23;;;2.20;;
26484;SDS011;18083;50.560;7.262;2023-03-26T11:13:20;3.20;;;1.73;;
26484;SDS011;18083;50.560;7.262;2023-03-26T11:15:51;6.33;;;1.37;;
26484;SDS011;18083;50.560;7.262;2023-03-26T11:18:19;2.77;;;1.07;;
26484;SDS011;18083;50.560;7.262;2023-03-26T11:20:50;1.83;;;0.93;;
26484;SDS011;18083;50.560;7.262;2023-03-26T11:26:22;3.30;;;1.30;;
26484;SDS011;18083;50.560;7.262;2023-03-26T11:31:34;4.33;;;1.23;;
26484;SDS011;18083;50.560;7.262;2023-03-26T11:33:57;1.73;;;1.17;;
26484;SDS011;18083;50.560;7.262;2023-03-26T11:36:29;3.17;;;1.20;;
26484;SDS011;18083;50.560;7.262;2023-03-26T11:38:56;2.63;;;1.10;;
26484;SDS011;18083;50.560;7.262;2023-03-26T11:41:24;1.40;;;1.00;;
26484;SDS011;18083;50.560;7.262;2023-03-26T11:43:54;3.30;;;1.43;;
26484;SDS011;18083;50.560;7.262;2023-03-26T11:46:22;3.07;;;1.27;;
26484;SDS011;18083;50.560;7.262;2023-03-26T11:49:01;2.50;;;1.50;;
26484;SDS011;18083;50.560;7.262;2023-03-26T11:51:29;1.50;;;1.10;;
26484;SDS011;18083;50.560;7.262;2023-03-26T11:54:00;1.50;;;1.00;;
26484;SDS011;18083;50.560;7.262;2023-03-26T11:56:32;2.00;;;1.30;;
26484;SDS011;18083;50.560;7.262;2023-03-26T11:59:03;1.33;;;1.10;;
26484;SDS011;18083;50.560;7.262;2023-03-26T12:04:14;2.33;;;1.67;;
26484;SDS011;18083;50.560;7.262;2023-03-26T12:06:54;1.47;;;1.20;;
26484;SDS011;18083;50.560;7.262;2023-03-26T12:09:18;3.53;;;1.77;;
26484;SDS011;18083;50.560;7.262;2023-03-26T12:11:46;1.90;;;1.30;;
26484;SDS011;18083;50.560;7.262;2023-03-26T12:14:17;4.67;;;1.53;;
26484;SDS011;18083;50.560;7.262;2023-03-26T12:17:07;6.30;;;1.70;;
26484;SDS011;18083;50.560;7.262;2023-03-26T12:19:21;3.17;;;1.57;;
26484;SDS011;18083;50.560;7.262;2023-03-26T12:21:48;3.50;;;1.20;;
26484;SDS011;18083;50.560;7.262;2023-03-26T12:24:29;2.83;;;1.10;;
26484;SDS011;18083;50.560;7.262;2023-03-26T12:26:58;1.73;;;1.30;;
26484;SDS011;18083;50.560;7.262;2023-03-26T12:29:27;1.40;;;1.03;;
26484;SDS011;18083;50.560;7.262;2023-03-26T12:31:56;2.60;;;1.43;;
26484;SDS011;18083;50.560;7.262;2023-03-26T12:34:28;2.47;;;1.33;;
26484;SDS011;18083;50.560;7.262;2023-03-26T12:36:54;3.70;;;1.10;;
26484;SDS011;18083;50.560;7.262;2023-03-26T12:41:58;7.43;;;1.10;;
26484;SDS011;18083;50.560;7.262;2023-03-26T12:44:49;2.45;;;1.00;;
26484;SDS011;18083;50.560;7.262;2023-03-26T12:47:14;0.70;;;0.70;;
26484;SDS011;18083;50.560;7.262;2023-03-26T12:49:42;1.00;;;0.80;;
26484;SDS011;18083;50.560;7.262;2023-03-26T12:52:20;1.20;;;1.05;;
26484;SDS011;18083;50.560;7.262;2023-03-26T12:57:23;1.95;;;1.22;;
26484;SDS011;18083;50.560;7.262;2023-03-26T13:05:30;1.62;;;0.70;;
26484;SDS011;18083;50.560;7.262;2023-03-26T13:08:03;0.93;;;0.90;;
26484;SDS011;18083;50.560;7.262;2023-03-26T13:15:58;1.40;;;1.17;;
26484;SDS011;18083;50.560;7.262;2023-03-26T13:26:25;1.07;;;1.00;;
26484;SDS011;18083;50.560;7.262;2023-03-26T13:31:36;1.63;;;0.73;;
26484;SDS011;18083;50.560;7.262;2023-03-26T13:36:57;0.33;;;0.33;;
26484;SDS011;18083;50.560;7.262;2023-03-26T13:39:25;0.20;;;0.20;;
26484;SDS011;18083;50.560;7.262;2023-03-26T13:42:02;0.43;;;0.30;;
26484;SDS011;18083;50.560;7.262;2023-03-26T13:44:38;0.60;;;0.60;;
26484;SDS011;18083;50.560;7.262;2023-03-26T13:47:15;3.03;;;0.50;;
26484;SDS011;18083;50.560;7.262;2023-03-26T13:50:43;0.50;;;0.50;;
26484;SDS011;18083;50.560;7.262;2023-03-26T13:52:32;0.40;;;0.40;;
26484;SDS011;18083;50.560;7.262;2023-03-26T13:57:34;3.17;;;0.40;;
26484;SDS011;18083;50.560;7.262;2023-03-26T14:00:21;0.10;;;0.10;;
26484;SDS011;18083;50.560;7.262;2023-03-26T14:02:38;0.20;;;0.20;;
26484;SDS011;18083;50.560;7.262;2023-03-26T14:05:25;2.60;;;0.20;;
26484;SDS011;18083;50.560;7.262;2023-03-26T14:07:36;0.47;;;0.40;;
26484;SDS011;18083;50.560;7.262;2023-03-26T14:10:08;0.30;;;0.30;;
26484;SDS011;18083;50.560;7.262;2023-03-26T14:12:44;0.30;;;0.30;;
26484;SDS011;18083;50.560;7.262;2023-03-26T14:15:15;0.80;;;0.40;;
26484;SDS011;18083;50.560;7.262;2023-03-26T14:17:49;0.20;;;0.20;;
26484;SDS011;18083;50.560;7.262;2023-03-26T14:38:59;0.30;;;0.30;;
26484;SDS011;18083;50.560;7.262;2023-03-26T14:54:52;2.33;;;1.00;;
26484;SDS011;18083;50.560;7.262;2023-03-26T15:08:32;0.50;;;0.50;;
26484;SDS011;18083;50.560;7.262;2023-03-26T15:29:32;0.80;;;0.80;;
26484;SDS011;18083;50.560;7.262;2023-03-26T15:42:17;0.70;;;0.60;;
26484;SDS011;18083;50.560;7.262;2023-03-26T15:50:14;0.77;;;0.77;;
26484;SDS011;18083;50.560;7.262;2023-03-26T15:52:49;0.73;;;0.73;;
26484;SDS011;18083;50.560;7.262;2023-03-26T15:57:44;0.83;;;0.73;;
26484;SDS011;18083;50.560;7.262;2023-03-26T16:00:22;1.20;;;0.90;;
26484;SDS011;18083;50.560;7.262;2023-03-26T16:02:52;0.90;;;0.90;;
26484;SDS011;18083;50.560;7.262;2023-03-26T16:10:54;0.90;;;0.80;;
26484;SDS011;18083;50.560;7.262;2023-03-26T16:21:02;2.43;;;1.70;;
26484;SDS011;18083;50.560;7.262;2023-03-26T16:23:33;2.10;;;0.90;;
26484;SDS011;18083;50.560;7.262;2023-03-26T16:28:59;3.93;;;2.50;;
26484;SDS011;18083;50.560;7.262;2023-03-26T16:33:43;1.50;;;1.40;;
26484;SDS011;18083;50.560;7.262;2023-03-26T16:36:21;2.10;;;1.83;;
26484;SDS011;18083;50.560;7.262;2023-03-26T16:38:47;2.23;;;1.60;;
26484;SDS011;18083;50.560;7.262;2023-03-26T16:41:16;1.83;;;1.70;;
26484;SDS011;18083;50.560;7.262;2023-03-26T16:46:27;2.33;;;1.80;;
26484;SDS011;18083;50.560;7.262;2023-03-26T16:48:55;2.40;;;2.13;;
26484;SDS011;18083;50.560;7.262;2023-03-26T16:51:53;3.03;;;2.33;;
26484;SDS011;18083;50.560;7.262;2023-03-26T17:02:02;5.63;;;4.60;;
26484;SDS011;18083;50.560;7.262;2023-03-26T17:04:28;7.63;;;3.93;;
26484;SDS011;18083;50.560;7.262;2023-03-26T17:09:50;5.07;;;3.67;;
26484;SDS011;18083;50.560;7.262;2023-03-26T17:20:10;1.60;;;1.50;;
26484;SDS011;18083;50.560;7.262;2023-03-26T17:22:38;4.57;;;1.83;;
26484;SDS011;18083;50.560;7.262;2023-03-26T17:35:42;2.07;;;1.73;;
26484;SDS011;18083;50.560;7.262;2023-03-26T17:40:51;1.67;;;1.47;;
26484;SDS011;18083;50.560;7.262;2023-03-26T17:43:36;4.10;;;2.47;;
26484;SDS011;18083;50.560;7.262;2023-03-26T17:48:59;1.87;;;1.50;;
26484;SDS011;18083;50.560;7.262;2023-03-26T17:54:10;3.33;;;2.50;;
26484;SDS011;18083;50.560;7.262;2023-03-26T17:56:32;3.30;;;2.30;;
26484;SDS011;18083;50.560;7.262;2023-03-26T17:59:00;4.77;;;3.33;;
26484;SDS011;18083;50.560;7.262;2023-03-26T18:01:37;8.90;;;4.57;;
26484;SDS011;18083;50.560;7.262;2023-03-26T18:04:02;8.73;;;5.23;;
26484;SDS011;18083;50.560;7.262;2023-03-26T18:12:05;3.67;;;2.90;;
26484;SDS011;18083;50.560;7.262;2023-03-26T18:17:16;7.63;;;6.23;;
26484;SDS011;18083;50.560;7.262;2023-03-26T18:19:50;7.13;;;5.57;;
26484;SDS011;18083;50.560;7.262;2023-03-26T18:22:27;8.00;;;4.77;;
26484;SDS011;18083;50.560;7.262;2023-03-26T18:25:01;2.87;;;2.17;;
26484;SDS011;18083;50.560;7.262;2023-03-26T18:27:35;3.13;;;2.83;;
26484;SDS011;18083;50.560;7.262;2023-03-26T18:30:19;1.30;;;1.10;;
26484;SDS011;18083;50.560;7.262;2023-03-26T18:33:01;3.27;;;2.53;;
26484;SDS011;18083;50.560;7.262;2023-03-26T18:35:39;5.70;;;4.30;;
26484;SDS011;18083;50.560;7.262;2023-03-26T18:37:57;7.27;;;4.87;;
26484;SDS011;18083;50.560;7.262;2023-03-26T18:40:30;5.23;;;4.00;;
26484;SDS011;18083;50.560;7.262;2023-03-26T18:42:57;3.87;;;3.47;;
26484;SDS011;18083;50.560;7.262;2023-03-26T18:47:59;3.17;;;2.87;;
26484;SDS011;18083;50.560;7.262;2023-03-26T18:50:27;3.73;;;2.13;;
26484;SDS011;18083;50.560;7.262;2023-03-26T18:52:57;2.33;;;2.13;;
26484;SDS011;18083;50.560;7.262;2023-03-26T18:55:27;2.73;;;1.90;;
26484;SDS011;18083;50.560;7.262;2023-03-26T18:57:55;2.67;;;1.93;;
26484;SDS011;18083;50.560;7.262;2023-03-26T19:00:23;3.13;;;2.50;;
26484;SDS011;18083;50.560;7.262;2023-03-26T19:02:59;5.20;;;4.10;;
26484;SDS011;18083;50.560;7.262;2023-03-26T19:05:22;5.10;;;2.57;;
26484;SDS011;18083;50.560;7.262;2023-03-26T19:07:53;2.67;;;2.37;;
26484;SDS011;18083;50.560;7.262;2023-03-26T19:10:21;3.30;;;2.47;;
26484;SDS011;18083;50.560;7.262;2023-03-26T19:12:54;6.73;;;3.50;;
26484;SDS011;18083;50.560;7.262;2023-03-26T19:15:22;2.63;;;2.20;;
26484;SDS011;18083;50.560;7.262;2023-03-26T19:17:51;4.00;;;3.17;;
26484;SDS011;18083;50.560;7.262;2023-03-26T19:20:27;7.07;;;3.30;;
26484;SDS011;18083;50.560;7.262;2023-03-26T19:22:55;4.23;;;3.70;;
26484;SDS011;18083;50.560;7.262;2023-03-26T19:27:52;11.90;;;5.37;;
26484;SDS011;18083;50.560;7.262;2023-03-26T19:30:38;7.40;;;4.50;;
26484;SDS011;18083;50.560;7.262;2023-03-26T19:32:52;8.83;;;6.57;;
26484;SDS011;18083;50.560;7.262;2023-03-26T19:35:21;11.93;;;8.33;;
26484;SDS011;18083;50.560;7.262;2023-03-26T19:37:49;11.10;;;5.43;;
26484;SDS011;18083;50.560;7.262;2023-03-26T19:40:21;9.63;;;6.30;;
26484;SDS011;18083;50.560;7.262;2023-03-26T19:42:53;10.77;;;7.13;;
26484;SDS011;18083;50.560;7.262;2023-03-26T19:45:22;12.00;;;5.77;;
26484;SDS011;18083;50.560;7.262;2023-03-26T19:47:51;10.00;;;6.20;;
26484;SDS011;18083;50.560;7.262;2023-03-26T19:50:22;13.20;;;7.60;;
26484;SDS011;18083;50.560;7.262;2023-03-26T19:53:36;7.20;;;5.83;;
26484;SDS011;18083;50.560;7.262;2023-03-26T19:55:20;15.03;;;6.57;;
26484;SDS011;18083;50.560;7.262;2023-03-26T19:57:49;12.53;;;6.57;;
26484;SDS011;18083;50.560;7.262;2023-03-26T20:00:17;10.30;;;6.40;;
26484;SDS011;18083;50.560;7.262;2023-03-26T20:02:44;14.80;;;6.60;;
26484;SDS011;18083;50.560;7.262;2023-03-26T20:05:19;14.10;;;7.67;;
26484;SDS011;18083;50.560;7.262;2023-03-26T20:07:57;19.33;;;7.20;;
26484;SDS011;18083;50.560;7.262;2023-03-26T20:10:25;8.93;;;6.33;;
26484;SDS011;18083;50.560;7.262;2023-03-26T20:12:53;11.63;;;6.97;;
26484;SDS011;18083;50.560;7.262;2023-03-26T20:15:21;17.97;;;7.67;;
26484;SDS011;18083;50.560;7.262;2023-03-26T20:17:49;15.80;;;6.93;;
26484;SDS011;18083;50.560;7.262;2023-03-26T20:20:18;15.30;;;7.50;;
26484;SDS011;18083;50.560;7.262;2023-03-26T20:22:46;17.53;;;6.83;;
26484;SDS011;18083;50.560;7.262;2023-03-26T20:27:48;11.90;;;6.77;;
26484;SDS011;18083;50.560;7.262;2023-03-26T20:30:17;19.63;;;7.33;;
26484;SDS011;18083;50.560;7.262;2023-03-26T20:32:44;16.47;;;7.43;;
26484;SDS011;18083;50.560;7.262;2023-03-26T20:35:15;13.33;;;7.73;;
26484;SDS011;18083;50.560;7.262;2023-03-26T20:37:40;15.70;;;6.63;;
26484;SDS011;18083;50.560;7.262;2023-03-26T20:40:08;20.07;;;7.60;;
26484;SDS011;18083;50.560;7.262;2023-03-26T20:42:37;12.93;;;6.30;;